Time;durP1;ratioP1;P1;durP2;ratioP2;P2;SDS_P1;SDS_P2;PMS_P1;PMS_P2;Temp;Humidity;BMP_temperature;BMP_pressure;BME280_temperature;BME280_humidity;BME280_pressure;Samples;Min_cycle;Max_cycle;Signal;HPM_P1;HPM_P2
2020/12/10 00:01:02;;;;;;;38.70;16.27;;;;;;;;;;4822235;29;20115;-68
2020/12/10 00:03:29;;;;;;;28.52;13.98;;;;;;;;;;4827359;29;20080;-67
2020/12/10 00:05:55;;;;;;;35.83;15.80;;;;;;;;;;4823158;29;20046;-67
2020/12/10 00:08:21;;;;;;;33.13;15.35;;;;;;;;;;4823237;29;20077;-68
2020/12/10 00:10:47;;;;;;;33.90;15.73;;;;;;;;;;4822488;29;20046;-67
2020/12/10 00:13:14;;;;;;;34.75;16.98;;;;;;;;;;4820071;29;20046;-67
2020/12/10 00:15:40;;;;;;;35.00;15.80;;;;;;;;;;4821517;29;20439;-67
2020/12/10 00:18:06;;;;;;;38.20;15.45;;;;;;;;;;4822816;29;20072;-67
2020/12/10 00:20:32;;;;;;;35.85;16.48;;;;;;;;;;4823606;29;20046;-67
2020/12/10 00:22:58;;;;;;;39.80;16.80;;;;;;;;;;4823763;29;20419;-67
2020/12/10 00:25:25;;;;;;;32.30;15.65;;;;;;;;;;4823669;29;20060;-67
2020/12/10 00:27:51;;;;;;;33.95;14.65;;;;;;;;;;4816582;29;20510;-67
2020/12/10 00:30:17;;;;;;;35.70;16.20;;;;;;;;;;4823979;29;20550;-67
2020/12/10 00:32:43;;;;;;;29.63;15.70;;;;;;;;;;4823965;29;20452;-67
2020/12/10 00:35:10;;;;;;;32.08;15.55;;;;;;;;;;4822107;29;20050;-67
2020/12/10 00:37:36;;;;;;;37.20;15.70;;;;;;;;;;4822594;29;20047;-68
2020/12/10 00:40:06;;;;;;;35.28;16.75;;;;;;;;;;4822741;29;20095;-67
2020/12/10 00:42:33;;;;;;;39.35;17.35;;;;;;;;;;4818489;29;20146;-67
2020/12/10 00:44:59;;;;;;;37.20;16.58;;;;;;;;;;4823433;29;20503;-67
2020/12/10 00:47:26;;;;;;;36.45;17.27;;;;;;;;;;4820136;29;20054;-68
2020/12/10 00:49:55;;;;;;;40.22;18.45;;;;;;;;;;4835440;29;20519;-68
2020/12/10 00:52:23;;;;;;;43.88;18.23;;;;;;;;;;4819164;29;20547;-68
2020/12/10 00:54:50;;;;;;;36.28;16.92;;;;;;;;;;4823150;29;20145;-68
2020/12/10 00:57:16;;;;;;;35.78;16.88;;;;;;;;;;4824194;29;20141;-68
2020/12/10 00:59:42;;;;;;;34.85;17.25;;;;;;;;;;4821563;29;20054;-67
2020/12/10 01:02:09;;;;;;;43.90;18.83;;;;;;;;;;4822225;29;20054;-68
2020/12/10 01:04:35;;;;;;;38.05;18.05;;;;;;;;;;4824111;29;20050;-67
2020/12/10 01:07:01;;;;;;;43.38;18.73;;;;;;;;;;4822812;29;20590;-68
2020/12/10 01:09:28;;;;;;;40.58;17.42;;;;;;;;;;4822617;29;20053;-68
2020/12/10 01:11:54;;;;;;;42.92;19.02;;;;;;;;;;4820813;29;20054;-67
2020/12/10 01:14:20;;;;;;;43.90;18.85;;;;;;;;;;4822492;29;20045;-67
2020/12/10 01:16:47;;;;;;;38.42;18.73;;;;;;;;;;4823827;29;20042;-67
2020/12/10 01:19:14;;;;;;;42.30;18.23;;;;;;;;;;4822137;29;20042;-67
2020/12/10 01:21:40;;;;;;;45.03;20.08;;;;;;;;;;4821794;29;20050;-67
2020/12/10 01:24:06;;;;;;;43.50;20.20;;;;;;;;;;4822250;29;20099;-68
2020/12/10 01:26:33;;;;;;;45.65;18.65;;;;;;;;;;4822947;29;20061;-68
2020/12/10 01:29:03;;;;;;;48.00;19.45;;;;;;;;;;4822451;29;20129;-68
2020/12/10 01:31:29;;;;;;;39.88;19.25;;;;;;;;;;4823045;29;20046;-67
2020/12/10 01:33:57;;;;;;;41.22;18.83;;;;;;;;;;4821299;29;20038;-68
2020/12/10 01:36:26;;;;;;;45.17;20.02;;;;;;;;;;4822137;29;20046;-67
2020/12/10 01:38:53;;;;;;;46.20;19.55;;;;;;;;;;4822393;29;20109;-68
2020/12/10 01:41:19;;;;;;;47.28;21.15;;;;;;;;;;4820005;29;20417;-68
2020/12/10 01:43:46;;;;;;;49.33;21.58;;;;;;;;;;4823321;29;20102;-67
2020/12/10 01:46:12;;;;;;;51.67;21.47;;;;;;;;;;4823618;29;20112;-67
2020/12/10 01:48:39;;;;;;;56.65;23.30;;;;;;;;;;4827025;29;20295;-68
2020/12/10 01:51:05;;;;;;;46.90;21.48;;;;;;;;;;4822538;29;20046;-67
2020/12/10 01:53:32;;;;;;;53.65;23.05;;;;;;;;;;4820891;29;20058;-67
2020/12/10 01:55:58;;;;;;;54.25;23.25;;;;;;;;;;4821998;29;20042;-67
2020/12/10 01:58:25;;;;;;;57.40;22.95;;;;;;;;;;4824060;29;20141;-68
2020/12/10 02:00:52;;;;;;;59.67;22.75;;;;;;;;;;4820277;29;20108;-68
2020/12/10 02:03:18;;;;;;;58.67;22.97;;;;;;;;;;4821867;29;20042;-68
2020/12/10 02:05:47;;;;;;;59.42;23.45;;;;;;;;;;4821947;29;20118;-68
2020/12/10 02:08:14;;;;;;;58.95;23.67;;;;;;;;;;4829357;29;20060;-67
2020/12/10 02:10:41;;;;;;;56.85;22.40;;;;;;;;;;4820960;29;20050;-67
2020/12/10 02:13:07;;;;;;;59.40;23.30;;;;;;;;;;4820940;29;20464;-68
2020/12/10 02:15:34;;;;;;;60.90;23.85;;;;;;;;;;4820545;29;20054;-67
2020/12/10 02:18:01;;;;;;;60.17;24.47;;;;;;;;;;4825821;29;20500;-67
2020/12/10 02:20:27;;;;;;;51.08;22.17;;;;;;;;;;4823520;29;20410;-68
2020/12/10 02:23:01;;;;;;;61.53;21.23;;;;;;;;;;4821945;29;20115;-68
2020/12/10 02:25:30;;;;;;;55.08;24.42;;;;;;;;;;4819100;29;20114;-68
2020/12/10 02:28:00;;;;;;;62.75;25.63;;;;;;;;;;4821805;29;20050;-68
2020/12/10 02:30:27;;;;;;;57.72;24.23;;;;;;;;;;4822017;29;20568;-68
2020/12/10 02:33:00;;;;;;;58.90;25.30;;;;;;;;;;4818694;29;20050;-68
2020/12/10 02:35:27;;;;;;;56.50;25.45;;;;;;;;;;4817905;29;20128;-67
2020/12/10 02:37:54;;;;;;;68.65;28.65;;;;;;;;;;4821153;29;20102;-68
2020/12/10 02:40:20;;;;;;;63.33;26.20;;;;;;;;;;4827287;29;20089;-68
2020/12/10 02:42:46;;;;;;;61.35;25.83;;;;;;;;;;4821760;29;20492;-67
2020/12/10 02:45:12;;;;;;;64.57;28.05;;;;;;;;;;4821603;29;20099;-67
2020/12/10 02:47:38;;;;;;;68.15;27.30;;;;;;;;;;4821149;29;20050;-67
2020/12/10 02:50:04;;;;;;;64.43;25.83;;;;;;;;;;4820632;29;20046;-67
2020/12/10 02:52:30;;;;;;;64.97;26.92;;;;;;;;;;4821229;29;20410;-67
2020/12/10 02:54:57;;;;;;;72.03;26.83;;;;;;;;;;4819692;29;20046;-67
2020/12/10 02:57:24;;;;;;;61.97;26.05;;;;;;;;;;4821107;29;20062;-67
2020/12/10 02:59:49;;;;;;;62.20;26.27;;;;;;;;;;4818182;29;20510;-67
2020/12/10 03:02:16;;;;;;;66.65;26.88;;;;;;;;;;4820027;29;20039;-68
2020/12/10 03:04:43;;;;;;;64.23;26.37;;;;;;;;;;4820712;29;20046;-68
2020/12/10 03:07:09;;;;;;;60.30;26.55;;;;;;;;;;4820748;29;20042;-67
2020/12/10 03:09:35;;;;;;;69.05;27.00;;;;;;;;;;4820233;29;20049;-68
2020/12/10 03:12:02;;;;;;;69.60;27.27;;;;;;;;;;4820378;29;20125;-68
2020/12/10 03:14:28;;;;;;;72.47;27.70;;;;;;;;;;4818895;29;20126;-67
2020/12/10 03:16:54;;;;;;;78.90;28.83;;;;;;;;;;4820956;29;20042;-67
2020/12/10 03:19:21;;;;;;;68.00;27.13;;;;;;;;;;4821175;29;20046;-67
2020/12/10 03:21:47;;;;;;;78.22;28.08;;;;;;;;;;4820507;29;20491;-68
2020/12/10 03:24:13;;;;;;;75.72;27.70;;;;;;;;;;4823245;29;20049;-67
2020/12/10 03:26:39;;;;;;;78.88;28.55;;;;;;;;;;4824430;29;20083;-67
2020/12/10 03:29:08;;;;;;;76.78;29.25;;;;;;;;;;4823581;29;20065;-67
2020/12/10 03:31:34;;;;;;;67.78;28.77;;;;;;;;;;4827109;29;20049;-67
2020/12/10 03:34:02;;;;;;;75.95;29.10;;;;;;;;;;4821756;29;20050;-67
2020/12/10 03:36:30;;;;;;;68.20;27.50;;;;;;;;;;4823164;29;20557;-69
2020/12/10 03:38:56;;;;;;;71.72;28.15;;;;;;;;;;4823610;29;20101;-68
2020/12/10 03:41:22;;;;;;;80.22;28.70;;;;;;;;;;4823740;29;20111;-68
2020/12/10 03:43:49;;;;;;;65.80;26.67;;;;;;;;;;4823598;29;20046;-68
2020/12/10 03:46:15;;;;;;;69.55;27.88;;;;;;;;;;4822895;29;20042;-68
2020/12/10 03:48:41;;;;;;;79.38;28.63;;;;;;;;;;4823616;29;20043;-67
2020/12/10 03:51:07;;;;;;;76.10;28.98;;;;;;;;;;4824404;29;20046;-68
2020/12/10 03:53:33;;;;;;;65.22;27.63;;;;;;;;;;4828184;29;20404;-67
2020/12/10 03:55:59;;;;;;;69.22;28.50;;;;;;;;;;4824020;29;20046;-67
2020/12/10 03:58:26;;;;;;;73.18;29.23;;;;;;;;;;4823631;29;20053;-68
2020/12/10 04:00:52;;;;;;;70.97;27.30;;;;;;;;;;4821359;29;20201;-67
2020/12/10 04:03:18;;;;;;;74.18;29.50;;;;;;;;;;4823603;29;20115;-67
2020/12/10 04:05:44;;;;;;;76.65;27.95;;;;;;;;;;4823893;29;20046;-67
2020/12/10 04:08:10;;;;;;;72.13;28.85;;;;;;;;;;4823601;29;20106;-67
2020/12/10 04:10:37;;;;;;;67.55;28.30;;;;;;;;;;4824024;29;20495;-67
2020/12/10 04:13:03;;;;;;;64.88;27.63;;;;;;;;;;4822888;29;20050;-67
2020/12/10 04:15:29;;;;;;;71.07;28.52;;;;;;;;;;4824101;29;20051;-67
2020/12/10 04:17:55;;;;;;;70.20;28.60;;;;;;;;;;4822978;29;20129;-67
2020/12/10 04:20:21;;;;;;;66.95;28.50;;;;;;;;;;4824425;29;20055;-68
2020/12/10 04:22:48;;;;;;;69.43;27.58;;;;;;;;;;4822390;29;20054;-68
2020/12/10 04:25:14;;;;;;;75.43;28.50;;;;;;;;;;4823813;29;20098;-67
2020/12/10 04:27:40;;;;;;;66.82;27.67;;;;;;;;;;4829092;29;20039;-67
2020/12/10 04:30:06;;;;;;;69.80;28.85;;;;;;;;;;4823292;29;20465;-67
2020/12/10 04:32:33;;;;;;;70.68;28.13;;;;;;;;;;4822971;29;20456;-67
2020/12/10 04:34:59;;;;;;;67.68;27.00;;;;;;;;;;4820559;29;20133;-67
2020/12/10 04:37:25;;;;;;;73.47;29.02;;;;;;;;;;4822958;29;20050;-67
2020/12/10 04:39:52;;;;;;;72.45;28.95;;;;;;;;;;4822817;29;20056;-67
2020/12/10 04:42:19;;;;;;;78.05;29.25;;;;;;;;;;4822409;29;20058;-67
2020/12/10 04:44:46;;;;;;;75.97;29.55;;;;;;;;;;4822111;29;20690;-67
2020/12/10 04:47:13;;;;;;;72.93;28.55;;;;;;;;;;4822060;29;20057;-67
2020/12/10 04:49:40;;;;;;;68.50;28.25;;;;;;;;;;4822475;29;20042;-67
2020/12/10 04:52:07;;;;;;;72.53;28.42;;;;;;;;;;4822751;29;20042;-67
2020/12/10 04:54:34;;;;;;;73.10;29.23;;;;;;;;;;4824086;29;20078;-67
2020/12/10 04:57:02;;;;;;;74.72;29.75;;;;;;;;;;4821260;29;20146;-68
2020/12/10 04:59:28;;;;;;;73.93;28.42;;;;;;;;;;4822943;29;20043;-68
2020/12/10 05:01:54;;;;;;;75.53;27.63;;;;;;;;;;4821650;29;20087;-67
2020/12/10 05:04:22;;;;;;;65.20;27.48;;;;;;;;;;4822445;29;20056;-67
2020/12/10 05:06:48;;;;;;;69.78;29.08;;;;;;;;;;4822987;29;20453;-67
2020/12/10 05:09:15;;;;;;;63.92;26.10;;;;;;;;;;4822682;29;20402;-67
2020/12/10 05:11:41;;;;;;;73.50;27.90;;;;;;;;;;4821602;29;20102;-67
2020/12/10 05:14:07;;;;;;;60.03;25.92;;;;;;;;;;4824090;29;20107;-67
2020/12/10 05:16:33;;;;;;;74.30;27.80;;;;;;;;;;4821979;29;20080;-67
2020/12/10 05:19:18;;;;;;;67.20;27.40;;;;;;;;;;4822726;29;20050;-67
2020/12/10 05:22:05;;;;;;;64.65;26.55;;;;;;;;;;4821394;29;20050;-68
2020/12/10 05:24:31;;;;;;;66.25;27.45;;;;;;;;;;4822767;29;20133;-67
2020/12/10 05:27:16;;;;;;;71.10;27.33;;;;;;;;;;4819153;29;20058;-67
2020/12/10 05:29:43;;;;;;;64.15;26.92;;;;;;;;;;4819408;29;20050;-67
2020/12/10 05:32:27;;;;;;;69.50;27.40;;;;;;;;;;4821336;29;20582;-67
2020/12/10 05:34:54;;;;;;;66.25;28.40;;;;;;;;;;4821938;29;20514;-67
2020/12/10 05:37:27;;;;;;;69.50;27.58;;;;;;;;;;4821071;29;20051;-67
2020/12/10 05:39:58;;;;;;;67.00;27.38;;;;;;;;;;4821635;29;20042;-67
2020/12/10 05:42:25;;;;;;;71.82;28.13;;;;;;;;;;4824357;29;20050;-67
2020/12/10 05:44:52;;;;;;;;;;;;;;;;;;4822916;29;20054;-67
2020/12/10 05:47:27;;;;;;;69.72;27.27;;;;;;;;;;4821956;29;19981;-67
2020/12/10 05:49:55;;;;;;;62.63;27.38;;;;;;;;;;4821752;29;20038;-67
2020/12/10 05:52:23;;;;;;;70.45;29.00;;;;;;;;;;4818356;29;20041;-67
2020/12/10 05:54:54;;;;;;;65.57;27.00;;;;;;;;;;4821630;29;20057;-67
2020/12/10 05:57:21;;;;;;;72.15;28.20;;;;;;;;;;4821306;29;20081;-67
2020/12/10 05:59:48;;;;;;;72.95;29.27;;;;;;;;;;4821790;29;20047;-67
2020/12/10 06:02:17;;;;;;;52.38;21.77;;;;;;;;;;4820803;29;20057;-67
2020/12/10 06:04:45;;;;;;;65.90;25.58;;;;;;;;;;4819056;29;20495;-67
2020/12/10 06:07:11;;;;;;;67.63;26.73;;;;;;;;;;4821190;29;20130;-67
2020/12/10 06:09:37;;;;;;;65.53;27.33;;;;;;;;;;4821530;29;20050;-67
2020/12/10 06:12:04;;;;;;;72.20;27.75;;;;;;;;;;4820627;29;20119;-67
2020/12/10 06:14:31;;;;;;;65.73;26.47;;;;;;;;;;4823350;29;20046;-67
2020/12/10 06:17:07;;;;;;;65.00;26.27;;;;;;;;;;4820909;29;20564;-67
2020/12/10 06:19:34;;;;;;;76.32;26.25;;;;;;;;;;4822109;29;20050;-67
2020/12/10 06:22:25;;;;;;;68.32;27.38;;;;;;;;;;4820160;29;20069;-67
2020/12/10 06:24:52;;;;;;;61.17;25.08;;;;;;;;;;4820006;29;20508;-67
2020/12/10 06:27:23;;;;;;;64.10;25.52;;;;;;;;;;4816977;29;20520;-68
2020/12/10 06:29:49;;;;;;;68.60;27.55;;;;;;;;;;4819975;29;20050;-67
2020/12/10 06:32:19;;;;;;;60.80;25.70;;;;;;;;;;4819457;29;20046;-67
2020/12/10 06:34:46;;;;;;;63.33;26.15;;;;;;;;;;4821619;29;20050;-67
2020/12/10 06:37:22;;;;;;;66.43;25.38;;;;;;;;;;4821942;29;20058;-67
2020/12/10 06:39:52;;;;;;;62.17;26.08;;;;;;;;;;4821855;29;20039;-67
2020/12/10 06:42:19;;;;;;;64.50;26.38;;;;;;;;;;4816903;29;20046;-67
2020/12/10 06:44:45;;;;;;;65.03;25.58;;;;;;;;;;4821670;29;20461;-67
2020/12/10 06:47:11;;;;;;;63.72;25.13;;;;;;;;;;4821965;29;20099;-67
2020/12/10 06:49:39;;;;;;;43.33;18.55;;;;;;;;;;4821837;29;20074;-67
2020/12/10 06:52:15;;;;;;;61.60;24.88;;;;;;;;;;4820898;29;20058;-67
2020/12/10 06:55:00;;;;;;;62.50;25.50;;;;;;;;;;4821142;29;20095;-67
2020/12/10 06:57:46;;;;;;;68.75;26.17;;;;;;;;;;4820973;29;20058;-67
2020/12/10 07:00:32;;;;;;;59.80;25.67;;;;;;;;;;4821301;29;20054;-67
2020/12/10 07:03:09;;;;;;;59.88;26.35;;;;;;;;;;4824224;29;20118;-67
2020/12/10 07:05:36;;;;;;;70.20;27.08;;;;;;;;;;4825685;29;20452;-67
2020/12/10 07:08:06;;;;;;;66.32;25.08;;;;;;;;;;4824940;29;20046;-67
2020/12/10 07:10:42;;;;;;;61.80;26.55;;;;;;;;;;4823818;29;20062;-67
2020/12/10 07:13:09;;;;;;;65.35;24.40;;;;;;;;;;4824667;29;20452;-67
2020/12/10 07:15:35;;;;;;;63.97;24.35;;;;;;;;;;4822703;29;20138;-67
2020/12/10 07:18:04;;;;;;;63.78;26.85;;;;;;;;;;4824817;29;20507;-67
2020/12/10 07:20:32;;;;;;;63.60;25.30;;;;;;;;;;4824421;29;20050;-67
2020/12/10 07:22:58;;;;;;;59.13;24.63;;;;;;;;;;4820717;29;20046;-67
2020/12/10 07:25:24;;;;;;;64.32;26.48;;;;;;;;;;4824798;29;20106;-67
2020/12/10 07:27:51;;;;;;;57.97;25.00;;;;;;;;;;4824786;29;20058;-67
2020/12/10 07:30:19;;;;;;;69.20;26.60;;;;;;;;;;4818117;29;20046;-67
2020/12/10 07:32:46;;;;;;;67.15;26.15;;;;;;;;;;4823982;29;20057;-67
2020/12/10 07:35:12;;;;;;;61.83;25.42;;;;;;;;;;4823918;29;20062;-67
2020/12/10 07:37:39;;;;;;;60.92;24.92;;;;;;;;;;4824487;29;20051;-67
2020/12/10 07:40:08;;;;;;;63.83;25.50;;;;;;;;;;4824069;29;20046;-67
2020/12/10 07:42:35;;;;;;;65.15;26.15;;;;;;;;;;4824454;29;20133;-67
2020/12/10 07:45:18;;;;;;;65.10;25.90;;;;;;;;;;4822078;29;20042;-67
2020/12/10 07:47:54;;;;;;;57.05;23.55;;;;;;;;;;4823858;29;20149;-67
2020/12/10 07:50:22;;;;;;;59.28;25.05;;;;;;;;;;4818460;29;20054;-67
2020/12/10 07:52:49;;;;;;;61.00;25.23;;;;;;;;;;4824350;29;20054;-67
2020/12/10 07:55:16;;;;;;;67.60;26.38;;;;;;;;;;4824002;29;20084;-67
2020/12/10 07:57:49;;;;;;;65.35;25.15;;;;;;;;;;4822836;29;20574;-67
2020/12/10 08:00:17;;;;;;;64.00;25.33;;;;;;;;;;4822916;29;20142;-68
2020/12/10 08:02:47;;;;;;;59.00;24.40;;;;;;;;;;4823160;29;20100;-67
2020/12/10 08:05:14;;;;;;;66.13;25.80;;;;;;;;;;4823533;29;20068;-68
2020/12/10 08:07:44;;;;;;;64.90;26.80;;;;;;;;;;4823844;29;20057;-67
2020/12/10 08:10:18;;;;;;;57.53;24.00;;;;;;;;;;4823753;29;20054;-67
2020/12/10 08:12:44;;;;;;;70.88;25.73;;;;;;;;;;4819306;29;20381;-67
2020/12/10 08:15:19;;;;;;;63.42;24.23;;;;;;;;;;4823484;29;20050;-67
2020/12/10 08:17:51;;;;;;;56.08;24.83;;;;;;;;;;4821515;29;20057;-67
2020/12/10 08:20:17;;;;;;;60.25;25.95;;;;;;;;;;4823229;29;20050;-67
2020/12/10 08:22:43;;;;;;;62.85;25.17;;;;;;;;;;4822810;29;20122;-67
2020/12/10 08:25:15;;;;;;;59.20;25.38;;;;;;;;;;4823055;29;20117;-67
2020/12/10 08:27:42;;;;;;;66.70;24.73;;;;;;;;;;4823706;29;20046;-67
2020/12/10 08:30:10;;;;;;;61.53;25.35;;;;;;;;;;4823260;29;20133;-67
2020/12/10 08:32:48;;;;;;;64.70;24.85;;;;;;;;;;4823318;29;20111;-67
2020/12/10 08:35:14;;;;;;;61.75;23.30;;;;;;;;;;4822352;29;20074;-67
2020/12/10 08:37:42;;;;;;;55.60;23.70;;;;;;;;;;4823440;29;20076;-67
2020/12/10 08:40:09;;;;;;;63.33;25.17;;;;;;;;;;4823405;29;20062;-67
2020/12/10 08:42:35;;;;;;;48.22;20.50;;;;;;;;;;4822396;29;20475;-67
2020/12/10 08:45:02;;;;;;;53.85;21.15;;;;;;;;;;4821954;29;20069;-67
2020/12/10 08:47:35;;;;;;;59.13;23.70;;;;;;;;;;4823671;29;20043;-67
2020/12/10 08:50:27;;;;;;;58.03;23.08;;;;;;;;;;4822959;29;20099;-67
2020/12/10 08:53:00;;;;;;;48.83;20.55;;;;;;;;;;4820907;29;20138;-67
2020/12/10 08:55:28;;;;;;;50.17;21.75;;;;;;;;;;4822051;29;20042;-67
2020/12/10 08:57:56;;;;;;;52.10;20.80;;;;;;;;;;4820676;29;20089;-67
2020/12/10 09:00:22;;;;;;;;;;;;;;;;;;4821755;29;20099;-67
2020/12/10 09:02:48;;;;;;;50.00;21.10;;;;;;;;;;4822217;29;19960;-67
2020/12/10 09:05:16;;;;;;;46.95;21.10;;;;;;;;;;4823416;29;20043;-67
2020/12/10 09:07:42;;;;;;;41.53;18.02;;;;;;;;;;4823082;29;20185;-67
2020/12/10 09:10:09;;;;;;;43.38;18.25;;;;;;;;;;4822469;29;20103;-67
2020/12/10 09:12:35;;;;;;;33.35;14.57;;;;;;;;;;4821417;29;20084;-67
2020/12/10 09:15:02;;;;;;;30.33;14.43;;;;;;;;;;4822996;29;20050;-67
2020/12/10 09:17:29;;;;;;;34.03;15.98;;;;;;;;;;4823034;29;20050;-67
2020/12/10 09:19:55;;;;;;;39.37;16.20;;;;;;;;;;4822682;29;20054;-67
2020/12/10 09:22:21;;;;;;;32.72;15.07;;;;;;;;;;4821279;29;20151;-67
2020/12/10 09:24:47;;;;;;;33.70;15.02;;;;;;;;;;4815505;29;20113;-67
2020/12/10 09:27:18;;;;;;;33.58;16.27;;;;;;;;;;4821626;29;20102;-67
2020/12/10 09:29:44;;;;;;;31.38;14.88;;;;;;;;;;4822668;29;20049;-67
2020/12/10 09:32:10;;;;;;;29.80;13.77;;;;;;;;;;4822567;29;20125;-67
2020/12/10 09:34:37;;;;;;;31.50;12.30;;;;;;;;;;4820518;29;20141;-68
2020/12/10 09:37:03;;;;;;;30.27;15.32;;;;;;;;;;4823600;29;20048;-67
2020/12/10 09:39:32;;;;;;;30.55;13.23;;;;;;;;;;4822741;29;20046;-67
2020/12/10 09:41:59;;;;;;;31.30;14.45;;;;;;;;;;4822797;29;20086;-67
2020/12/10 09:44:26;;;;;;;32.40;13.57;;;;;;;;;;4823377;29;20046;-67
2020/12/10 09:46:52;;;;;;;27.08;10.68;;;;;;;;;;4821616;29;20053;-67
2020/12/10 09:49:19;;;;;;;24.73;12.83;;;;;;;;;;4822553;29;20058;-67
2020/12/10 09:51:52;;;;;;;27.60;11.60;;;;;;;;;;4822292;29;20305;-67
2020/12/10 09:54:38;;;;;;;27.05;13.55;;;;;;;;;;4819574;29;20119;-67
2020/12/10 09:57:21;;;;;;;27.60;13.35;;;;;;;;;;4820638;29;20054;-67
2020/12/10 09:59:48;;;;;;;25.92;12.50;;;;;;;;;;4821917;29;20453;-67
2020/12/10 10:02:16;;;;;;;26.70;12.52;;;;;;;;;;4819097;29;20125;-67
2020/12/10 10:04:43;;;;;;;26.50;13.02;;;;;;;;;;4821748;29;20056;-67
2020/12/10 10:07:09;;;;;;;27.60;12.88;;;;;;;;;;4821959;29;20046;-67
2020/12/10 10:09:37;;;;;;;29.63;13.93;;;;;;;;;;4821757;29;20058;-67
2020/12/10 10:12:04;;;;;;;;;;;;;;;;;;4822010;29;20058;-67
2020/12/10 10:14:34;;;;;;;23.05;9.90;;;;;;;;;;4818930;29;19925;-67
2020/12/10 10:17:03;;;;;;;28.02;13.68;;;;;;;;;;4822042;29;20042;-67
2020/12/10 10:19:29;;;;;;;29.45;14.00;;;;;;;;;;4822039;29;20042;-67
2020/12/10 10:21:56;;;;;;;31.83;13.65;;;;;;;;;;4821109;29;20511;-67
2020/12/10 10:24:23;;;;;;;35.30;15.73;;;;;;;;;;4821764;29;20117;-68
2020/12/10 10:26:49;;;;;;;28.52;14.23;;;;;;;;;;4822011;29;20103;-67
2020/12/10 10:29:20;;;;;;;30.80;15.30;;;;;;;;;;4820429;29;20455;-67
2020/12/10 10:31:48;;;;;;;30.45;14.23;;;;;;;;;;4821013;29;20045;-67
2020/12/10 10:34:14;;;;;;;29.10;14.07;;;;;;;;;;4820520;29;20038;-67
2020/12/10 10:36:41;;;;;;;30.70;14.73;;;;;;;;;;4821920;29;20073;-68
2020/12/10 10:39:08;;;;;;;35.20;15.35;;;;;;;;;;4821681;29;20547;-67
2020/12/10 10:41:41;;;;;;;32.90;15.83;;;;;;;;;;4816365;29;20515;-67
2020/12/10 10:44:07;;;;;;;31.00;14.00;;;;;;;;;;4820375;29;20053;-67
2020/12/10 10:46:33;;;;;;;35.30;14.75;;;;;;;;;;4821098;29;20050;-67
2020/12/10 10:49:00;;;;;;;30.65;14.20;;;;;;;;;;4821589;29;20066;-67
2020/12/10 10:51:27;;;;;;;30.23;14.50;;;;;;;;;;4820628;29;20523;-67
2020/12/10 10:53:53;;;;;;;28.83;12.43;;;;;;;;;;4817804;29;20060;-68
2020/12/10 10:56:20;;;;;;;31.50;15.00;;;;;;;;;;4815104;29;20050;-67
2020/12/10 10:58:46;;;;;;;27.75;14.15;;;;;;;;;;4816904;29;20058;-67
2020/12/10 11:01:13;;;;;;;29.70;14.90;;;;;;;;;;4815659;29;20578;-67
2020/12/10 11:03:40;;;;;;;33.83;14.70;;;;;;;;;;4821394;29;20061;-67
2020/12/10 11:06:06;;;;;;;26.88;11.55;;;;;;;;;;4821392;29;20050;-67
2020/12/10 11:08:33;;;;;;;29.88;13.05;;;;;;;;;;4820991;29;20042;-67
2020/12/10 11:10:59;;;;;;;28.88;14.73;;;;;;;;;;4820491;29;20125;-67
2020/12/10 11:13:25;;;;;;;33.00;15.55;;;;;;;;;;4821453;29;20076;-67
2020/12/10 11:15:51;;;;;;;31.13;13.93;;;;;;;;;;4820476;29;20050;-67
2020/12/10 11:18:17;;;;;;;36.47;14.73;;;;;;;;;;4821396;29;20403;-67
2020/12/10 11:20:43;;;;;;;27.23;13.43;;;;;;;;;;4822495;29;20058;-67
2020/12/10 11:23:12;;;;;;;29.63;15.20;;;;;;;;;;4821290;29;20389;-67
2020/12/10 11:25:38;;;;;;;31.42;14.70;;;;;;;;;;4821299;29;20038;-67
2020/12/10 11:28:05;;;;;;;33.65;14.80;;;;;;;;;;4819905;29;20114;-67
2020/12/10 11:30:31;;;;;;;35.75;14.60;;;;;;;;;;4820145;29;20057;-67
2020/12/10 11:32:57;;;;;;;30.10;14.25;;;;;;;;;;4820953;29;20499;-67
2020/12/10 11:35:24;;;;;;;29.55;14.00;;;;;;;;;;4820738;29;20050;-67
2020/12/10 11:37:55;;;;;;;27.60;13.77;;;;;;;;;;4821150;29;20061;-67
2020/12/10 11:40:24;;;;;;;28.33;13.50;;;;;;;;;;4814197;29;20091;-67
2020/12/10 11:42:51;;;;;;;28.65;13.70;;;;;;;;;;4818621;29;20125;-67
2020/12/10 11:45:18;;;;;;;29.20;14.35;;;;;;;;;;4823863;29;20122;-67
2020/12/10 11:47:46;;;;;;;28.75;13.52;;;;;;;;;;4824829;29;20054;-68
2020/12/10 11:50:18;;;;;;;32.40;13.65;;;;;;;;;;4824341;29;20046;-67
2020/12/10 11:52:49;;;;;;;30.67;14.48;;;;;;;;;;4823377;29;20129;-67
2020/12/10 11:55:15;;;;;;;34.05;13.90;;;;;;;;;;4823345;29;20042;-67
2020/12/10 11:57:42;;;;;;;31.20;13.95;;;;;;;;;;4824259;29;20555;-67
2020/12/10 12:00:09;;;;;;;37.20;13.98;;;;;;;;;;4823775;29;20122;-67
2020/12/10 12:02:38;;;;;;;29.33;14.43;;;;;;;;;;4823646;29;20044;-67
2020/12/10 12:05:05;;;;;;;28.75;14.15;;;;;;;;;;4824053;29;20077;-67
2020/12/10 12:07:32;;;;;;;33.90;14.60;;;;;;;;;;4824369;29;20046;-67
2020/12/10 12:09:58;;;;;;;29.40;14.13;;;;;;;;;;4823849;29;20047;-67
2020/12/10 12:12:24;;;;;;;32.50;13.50;;;;;;;;;;4823273;29;20515;-67
2020/12/10 12:14:51;;;;;;;30.08;11.85;;;;;;;;;;4821991;29;20400;-67
2020/12/10 12:17:17;;;;;;;28.75;12.60;;;;;;;;;;4823789;29;20495;-67
2020/12/10 12:19:44;;;;;;;19.05;6.97;;;;;;;;;;4823606;29;20057;-67
2020/12/10 12:22:11;;;;;;;21.52;10.63;;;;;;;;;;4822672;29;20049;-67
2020/12/10 12:24:37;;;;;;;20.27;9.52;;;;;;;;;;4824047;29;20046;-67
2020/12/10 12:27:04;;;;;;;20.55;10.48;;;;;;;;;;4823685;29;20058;-67
2020/12/10 12:29:30;;;;;;;15.77;7.28;;;;;;;;;;4823694;29;20051;-67
2020/12/10 12:32:03;;;;;;;20.77;9.80;;;;;;;;;;4823345;29;20048;-67
2020/12/10 12:34:29;;;;;;;19.95;10.02;;;;;;;;;;4822583;29;20065;-67
2020/12/10 12:36:55;;;;;;;23.13;11.15;;;;;;;;;;4823574;29;20509;-67
2020/12/10 12:39:22;;;;;;;21.05;10.82;;;;;;;;;;4823753;29;20102;-67
2020/12/10 12:41:52;;;;;;;23.70;12.15;;;;;;;;;;4824025;29;20077;-67
2020/12/10 12:44:19;;;;;;;30.20;12.00;;;;;;;;;;4821326;29;20043;-67
2020/12/10 12:46:49;;;;;;;26.23;11.73;;;;;;;;;;4823743;29;20462;-67
2020/12/10 12:49:16;;;;;;;28.20;12.48;;;;;;;;;;4823008;29;20062;-67
2020/12/10 12:51:42;;;;;;;29.20;12.38;;;;;;;;;;4823603;29;20052;-67
2020/12/10 12:54:08;;;;;;;26.50;13.32;;;;;;;;;;4821957;29;20046;-67
2020/12/10 12:56:34;;;;;;;27.83;13.00;;;;;;;;;;4821594;29;20051;-67
2020/12/10 12:59:01;;;;;;;25.45;12.55;;;;;;;;;;4821928;29;20070;-67
2020/12/10 13:01:28;;;;;;;23.95;12.60;;;;;;;;;;4821503;29;20046;-67
2020/12/10 13:03:54;;;;;;;22.13;10.48;;;;;;;;;;4821991;29;20087;-67
2020/12/10 13:06:21;;;;;;;28.23;13.27;;;;;;;;;;4823083;29;20046;-67
2020/12/10 13:08:48;;;;;;;27.33;14.20;;;;;;;;;;4822885;29;20121;-67
2020/12/10 13:11:19;;;;;;;29.00;11.65;;;;;;;;;;4822246;29;20042;-67
2020/12/10 13:13:45;;;;;;;23.65;11.43;;;;;;;;;;4822514;29;20125;-67
2020/12/10 13:16:11;;;;;;;25.88;11.15;;;;;;;;;;4822422;29;20045;-67
2020/12/10 13:18:38;;;;;;;26.95;12.05;;;;;;;;;;4822017;29;20149;-67
2020/12/10 13:21:04;;;;;;;22.98;10.65;;;;;;;;;;4822401;29;20115;-67
2020/12/10 13:23:30;;;;;;;23.80;10.40;;;;;;;;;;4823013;29;20053;-67
2020/12/10 13:25:57;;;;;;;23.13;11.52;;;;;;;;;;4822810;29;20114;-67
2020/12/10 13:28:23;;;;;;;20.65;10.50;;;;;;;;;;4821803;29;20054;-67
2020/12/10 13:30:50;;;;;;;20.13;10.18;;;;;;;;;;4822657;29;20054;-67
2020/12/10 13:33:16;;;;;;;23.08;10.30;;;;;;;;;;4821069;29;20039;-67
2020/12/10 13:35:44;;;;;;;19.83;9.85;;;;;;;;;;4822817;29;20437;-67
2020/12/10 13:38:10;;;;;;;20.83;9.35;;;;;;;;;;4821440;29;20047;-67
2020/12/10 13:40:36;;;;;;;19.52;8.85;;;;;;;;;;4823576;29;20102;-67
2020/12/10 13:43:03;;;;;;;21.77;9.80;;;;;;;;;;4822468;29;20052;-67
2020/12/10 13:45:29;;;;;;;17.85;9.25;;;;;;;;;;4823386;29;20057;-67
2020/12/10 13:47:57;;;;;;;15.27;7.93;;;;;;;;;;4826825;29;20680;-67
2020/12/10 13:50:23;;;;;;;19.83;8.83;;;;;;;;;;4823343;29;20050;-67
2020/12/10 13:52:49;;;;;;;16.42;8.75;;;;;;;;;;4822684;29;20319;-67
2020/12/10 13:55:18;;;;;;;22.40;9.52;;;;;;;;;;4821894;29;20134;-67
2020/12/10 13:57:45;;;;;;;20.52;9.13;;;;;;;;;;4821479;29;20408;-67
2020/12/10 14:00:12;;;;;;;13.88;7.18;;;;;;;;;;4821723;29;20574;-67
2020/12/10 14:02:38;;;;;;;20.02;7.50;;;;;;;;;;4821414;29;20138;-67
2020/12/10 14:05:05;;;;;;;19.77;9.67;;;;;;;;;;4822099;29;20050;-67
2020/12/10 14:07:40;;;;;;;19.63;9.52;;;;;;;;;;4821578;29;20316;-67
2020/12/10 14:10:06;;;;;;;18.83;9.30;;;;;;;;;;4821788;29;20511;-67
2020/12/10 14:12:34;;;;;;;19.33;8.95;;;;;;;;;;4818968;29;20039;-67
2020/12/10 14:15:00;;;;;;;16.40;9.40;;;;;;;;;;4821527;29;20069;-68
2020/12/10 14:17:26;;;;;;;16.35;9.15;;;;;;;;;;4821755;29;20660;-67
2020/12/10 14:19:53;;;;;;;19.35;9.57;;;;;;;;;;4821903;29;20054;-68
2020/12/10 14:22:20;;;;;;;15.95;8.82;;;;;;;;;;4815532;29;20038;-67